createdAt,value
2023-02-21T00:01:05.285Z,4.37
2023-02-21T00:02:25.663Z,4.43
2023-02-21T00:03:45.934Z,5.50
2023-02-21T00:05:06.439Z,6.80
2023-02-21T00:06:28.286Z,5.47
2023-02-21T00:07:48.711Z,4.27
2023-02-21T00:09:09.296Z,4.40
2023-02-21T00:10:32.957Z,4.23
2023-02-21T00:11:53.269Z,4.70
2023-02-21T00:13:13.744Z,4.97
2023-02-21T00:14:34.123Z,3.60
2023-02-21T00:15:54.708Z,2.70
2023-02-21T00:17:15.341Z,4.60
2023-02-21T00:18:36.046Z,5.03
2023-02-21T00:19:56.631Z,4.67
2023-02-21T00:21:16.894Z,4.23
2023-02-21T00:22:37.509Z,3.70
2023-02-21T00:23:57.878Z,3.10
2023-02-21T00:25:18.347Z,3.83
2023-02-21T00:26:40.107Z,3.93
2023-02-21T00:28:00.639Z,4.87
2023-02-21T00:29:21.066Z,4.83
2023-02-21T00:30:41.901Z,4.23
2023-02-21T00:32:02.213Z,3.03
2023-02-21T00:33:22.484Z,3.37
2023-02-21T00:34:42.864Z,2.83
2023-02-21T00:36:03.179Z,4.20
2023-02-21T00:37:23.709Z,2.30
2023-02-21T00:38:44.012Z,6.57
2023-02-21T00:40:04.580Z,3.87
2023-02-21T00:41:25.180Z,3.03
2023-02-21T00:42:45.465Z,4.23
2023-02-21T00:44:05.851Z,4.27
2023-02-21T00:45:26.721Z,3.40
2023-02-21T00:46:47.335Z,4.30
2023-02-21T00:48:07.781Z,4.43
2023-02-21T00:49:28.503Z,5.13
2023-02-21T00:50:48.781Z,2.70
2023-02-21T00:52:09.865Z,3.47
2023-02-21T00:53:30.050Z,3.17
2023-02-21T00:54:50.882Z,3.27
2023-02-21T00:56:11.181Z,4.00
2023-02-21T00:57:32.088Z,4.10
2023-02-21T00:58:52.689Z,2.73
2023-02-21T01:00:13.234Z,4.87
2023-02-21T01:01:33.677Z,2.40
2023-02-21T01:02:54.087Z,5.33
2023-02-21T01:04:17.695Z,4.77
2023-02-21T01:05:38.290Z,3.50
2023-02-21T01:06:58.828Z,2.90
2023-02-21T01:08:19.373Z,3.40
2023-02-21T01:09:39.605Z,3.13
2023-02-21T01:11:00.668Z,5.70
2023-02-21T01:12:20.891Z,4.43
2023-02-21T01:13:41.541Z,2.77
2023-02-21T01:15:01.832Z,4.40
2023-02-21T01:16:22.359Z,4.97
2023-02-21T01:17:42.538Z,4.83
2023-02-21T01:19:03.268Z,4.07
2023-02-21T01:20:24.097Z,4.00
2023-02-21T01:21:44.769Z,2.63
2023-02-21T01:23:05.822Z,6.93
2023-02-21T01:24:31.130Z,3.70
2023-02-21T01:25:51.598Z,3.80
2023-02-21T01:27:11.852Z,2.00
2023-02-21T01:28:32.281Z,3.37
2023-02-21T01:29:52.928Z,2.93
2023-02-21T01:31:13.932Z,3.07
2023-02-21T01:32:35.167Z,5.67
2023-02-21T01:34:00.199Z,5.10
2023-02-21T01:35:20.924Z,3.63
2023-02-21T01:36:41.621Z,4.43
2023-02-21T01:38:02.073Z,4.87
2023-02-21T01:39:22.415Z,3.97
2023-02-21T01:40:42.874Z,4.03
2023-02-21T01:42:03.189Z,3.00
2023-02-21T01:43:36.427Z,4.03
2023-02-21T01:45:03.824Z,5.30
2023-02-21T01:46:25.230Z,3.70
2023-02-21T01:47:46.161Z,5.90
2023-02-21T01:49:09.622Z,5.03
2023-02-21T01:50:43.673Z,2.97
2023-02-21T01:52:04.004Z,4.97
2023-02-21T01:53:28.952Z,2.37
2023-02-21T01:54:56.755Z,4.13
2023-02-21T01:56:20.033Z,3.10
2023-02-21T01:57:41.820Z,5.07
2023-02-21T01:59:02.935Z,4.13
2023-02-21T02:00:26.286Z,3.13
2023-02-21T02:02:20.304Z,3.23
2023-02-21T02:03:40.797Z,3.63
2023-02-21T02:05:02.681Z,4.53
2023-02-21T02:06:26.770Z,5.67
2023-02-21T02:07:47.105Z,3.23
2023-02-21T02:09:08.155Z,3.23
2023-02-21T02:10:31.089Z,3.13
2023-02-21T02:12:11.819Z,3.00
2023-02-21T02:13:19.453Z,4.00
2023-02-21T02:14:33.084Z,3.27
2023-02-21T02:15:41.319Z,3.83
2023-02-21T02:16:53.143Z,4.83
2023-02-21T02:18:29.964Z,4.07
2023-02-21T02:19:50.434Z,2.87
2023-02-21T02:21:13.532Z,4.60
2023-02-21T02:22:15.428Z,2.33
2023-02-21T02:23:20.207Z,2.93
2023-02-21T02:24:32.822Z,5.50
2023-02-21T02:25:53.442Z,5.10
2023-02-21T02:27:16.744Z,4.23
2023-02-21T02:28:28.064Z,4.77
2023-02-21T02:29:58.834Z,4.07
2023-02-21T02:31:18.737Z,2.73
2023-02-21T02:32:39.238Z,4.30
2023-02-21T02:33:59.140Z,3.90
2023-02-21T02:35:27.569Z,3.23
2023-02-21T02:36:40.692Z,3.03
2023-02-21T02:37:48.561Z,5.20
2023-02-21T02:39:05.527Z,3.43
2023-02-21T02:40:22.682Z,2.80
2023-02-21T02:41:33.047Z,5.93
2023-02-21T02:42:52.886Z,3.57
2023-02-21T02:44:10.452Z,4.27
2023-02-21T02:45:15.339Z,4.73
2023-02-21T02:46:33.463Z,3.17
2023-02-21T02:47:39.158Z,4.03
2023-02-21T02:48:46.542Z,5.67
2023-02-21T02:49:50.233Z,4.67
2023-02-21T02:50:53.029Z,2.83
2023-02-21T02:51:55.102Z,4.90
2023-02-21T02:53:02.531Z,4.93
2023-02-21T02:54:04.930Z,3.13
2023-02-21T02:55:31.113Z,3.63
2023-02-21T02:56:33.775Z,3.77
2023-02-21T02:57:41.283Z,3.37
2023-02-21T02:58:57.659Z,2.77
2023-02-21T02:59:59.399Z,3.00
2023-02-21T03:01:35.037Z,3.30
2023-02-21T03:02:52.694Z,4.40
2023-02-21T03:04:27.159Z,3.93
2023-02-21T03:05:47.678Z,4.17
2023-02-21T03:06:53.189Z,3.53
2023-02-21T03:08:31.423Z,2.63
2023-02-21T03:09:45.045Z,2.70
2023-02-21T03:11:01.392Z,2.93
2023-02-21T03:12:10.896Z,3.23
2023-02-21T03:13:40.838Z,4.33
2023-02-21T03:14:51.212Z,3.93
2023-02-21T03:15:59.202Z,4.47
2023-02-21T03:17:09.324Z,7.67
2023-02-21T03:18:24.569Z,5.10
2023-02-21T03:19:30.504Z,3.33
2023-02-21T03:20:33.726Z,3.73
2023-02-21T03:21:42.034Z,2.97
2023-02-21T03:22:45.873Z,2.37
2023-02-21T03:23:51.924Z,2.43
2023-02-21T03:24:55.165Z,5.07
2023-02-21T03:26:04.776Z,3.13
2023-02-21T03:27:08.170Z,2.33
2023-02-21T03:28:10.132Z,3.43
2023-02-21T03:29:13.280Z,2.93
2023-02-21T03:30:15.788Z,6.47
2023-02-21T03:31:21.814Z,3.63
2023-02-21T03:33:01.650Z,2.83
2023-02-21T03:34:04.170Z,3.63
2023-02-21T03:35:07.309Z,3.70
2023-02-21T03:36:09.603Z,3.30
2023-02-21T03:37:40.062Z,3.47
2023-02-21T03:38:42.205Z,5.57
2023-02-21T03:39:43.870Z,2.63
2023-02-21T03:40:45.593Z,3.73
2023-02-21T03:41:47.257Z,6.03
2023-02-21T03:42:49.180Z,2.20
2023-02-21T03:43:50.852Z,3.67
2023-02-21T03:44:52.609Z,3.67
2023-02-21T03:45:54.282Z,3.50
2023-02-21T03:46:56.016Z,3.43
2023-02-21T03:47:57.720Z,2.87
2023-02-21T03:48:59.475Z,5.10
2023-02-21T03:50:01.289Z,3.70
2023-02-21T03:51:03.341Z,5.77
2023-02-21T03:52:05.263Z,3.80
2023-02-21T03:53:09.568Z,4.47
2023-02-21T03:54:11.424Z,6.43
2023-02-21T03:55:13.329Z,3.17
2023-02-21T03:56:15.256Z,5.07
2023-02-21T03:57:16.933Z,6.43
2023-02-21T03:58:18.641Z,5.13
2023-02-21T03:59:20.453Z,3.53
2023-02-21T04:00:22.301Z,5.17
2023-02-21T04:01:24.055Z,4.00
2023-02-21T04:02:26.084Z,4.00
2023-02-21T04:03:28.056Z,2.97
2023-02-21T04:04:29.862Z,6.30
2023-02-21T04:05:31.636Z,2.83
2023-02-21T04:06:33.320Z,3.70
2023-02-21T04:07:35.081Z,4.83
2023-02-21T04:08:36.839Z,6.00
2023-02-21T04:09:38.906Z,3.40
2023-02-21T04:10:51.350Z,3.40
2023-02-21T04:11:54.117Z,7.63
2023-02-21T04:12:55.948Z,2.40
2023-02-21T04:13:57.709Z,2.10
2023-02-21T04:14:59.536Z,7.57
2023-02-21T04:16:01.256Z,7.00
2023-02-21T04:17:03.042Z,3.83
2023-02-21T04:18:04.801Z,4.73
2023-02-21T04:19:06.554Z,3.70
2023-02-21T04:20:08.738Z,3.07
2023-02-21T04:21:10.598Z,2.50
2023-02-21T04:22:12.425Z,4.50
2023-02-21T04:23:18.958Z,4.03
2023-02-21T04:24:20.812Z,3.50
2023-02-21T04:25:22.647Z,5.60
2023-02-21T04:26:24.366Z,2.20
2023-02-21T04:27:27.017Z,2.93
2023-02-21T04:28:28.761Z,6.87
2023-02-21T04:29:30.479Z,3.13
2023-02-21T04:30:32.230Z,6.27
2023-02-21T04:31:34.230Z,3.90
2023-02-21T04:32:36.005Z,4.20
2023-02-21T04:33:37.729Z,3.73
2023-02-21T04:34:39.453Z,3.53
2023-02-21T04:35:41.256Z,2.60
2023-02-21T04:36:43.086Z,3.80
2023-02-21T04:37:45.138Z,3.40
2023-02-21T04:38:46.862Z,3.83
2023-02-21T04:39:48.681Z,5.77
2023-02-21T04:40:50.392Z,3.43
2023-02-21T04:41:52.105Z,4.47
2023-02-21T04:42:53.784Z,3.50
2023-02-21T04:43:55.461Z,4.57
2023-02-21T04:45:00.396Z,3.43
2023-02-21T04:46:02.531Z,2.77
2023-02-21T04:47:04.358Z,5.90
2023-02-21T04:48:06.258Z,3.10
2023-02-21T04:49:07.980Z,2.57
2023-02-21T04:50:09.856Z,7.63
2023-02-21T04:51:15.378Z,2.63
2023-02-21T04:52:21.787Z,3.20
2023-02-21T04:53:23.456Z,2.50
2023-02-21T04:54:25.697Z,2.93
2023-02-21T04:55:27.427Z,4.47
2023-02-21T04:56:29.481Z,4.07
2023-02-21T04:57:31.260Z,2.80
2023-02-21T04:58:44.773Z,2.83
2023-02-21T04:59:47.181Z,3.63
2023-02-21T05:00:48.937Z,4.23
2023-02-21T05:01:50.647Z,3.73
2023-02-21T05:02:52.415Z,7.80
2023-02-21T05:03:54.256Z,2.43
2023-02-21T05:04:56.093Z,4.07
2023-02-21T05:05:58.196Z,4.13
2023-02-21T05:07:01.533Z,3.40
2023-02-21T05:08:03.775Z,4.33
2023-02-21T05:09:06.121Z,3.23
2023-02-21T05:10:09.607Z,3.60
2023-02-21T05:11:11.329Z,6.57
2023-02-21T05:12:13.316Z,2.60
2023-02-21T05:13:15.360Z,3.87
2023-02-21T05:14:18.304Z,5.23
2023-02-21T05:15:20.074Z,2.37
2023-02-21T05:16:22.085Z,2.70
2023-02-21T05:17:23.850Z,3.53
2023-02-21T05:18:28.725Z,4.17
2023-02-21T05:19:30.443Z,3.33
2023-02-21T05:20:32.204Z,4.73
2023-02-21T05:21:40.261Z,2.83
2023-02-21T05:22:42.869Z,3.88
2023-02-21T05:23:55.943Z,5.63
2023-02-21T05:24:57.844Z,2.77
2023-02-21T05:26:12.317Z,3.30
2023-02-21T05:27:15.823Z,3.27
2023-02-21T05:28:17.599Z,3.60
2023-02-21T05:29:19.889Z,5.07
2023-02-21T05:30:24.012Z,2.43
2023-02-21T05:31:25.864Z,3.77
2023-02-21T05:32:29.650Z,3.53
2023-02-21T05:33:31.564Z,3.63
2023-02-21T05:34:33.432Z,3.87
2023-02-21T05:35:35.118Z,8.07
2023-02-21T05:36:36.963Z,2.93
2023-02-21T05:37:38.736Z,2.50
2023-02-21T05:38:49.153Z,5.63
2023-02-21T05:39:51.020Z,5.77
2023-02-21T05:40:53.317Z,4.57
2023-02-21T05:41:55.047Z,3.93
2023-02-21T05:42:56.972Z,4.63
2023-02-21T05:43:58.832Z,2.90
2023-02-21T05:45:00.774Z,3.80
2023-02-21T05:46:02.746Z,4.53
2023-02-21T05:47:04.576Z,5.47
2023-02-21T05:48:06.665Z,6.47
2023-02-21T05:49:08.701Z,6.63
2023-02-21T05:50:10.607Z,4.53
2023-02-21T05:51:12.721Z,5.63
2023-02-21T05:52:17.035Z,4.63
2023-02-21T05:53:18.750Z,3.23
2023-02-21T05:54:22.193Z,6.53
2023-02-21T05:55:24.278Z,3.47
2023-02-21T05:56:26.005Z,4.30
2023-02-21T05:57:27.847Z,4.43
2023-02-21T05:58:29.531Z,4.87
2023-02-21T05:59:31.335Z,3.37
2023-02-21T06:00:33.086Z,2.50
2023-02-21T06:01:35.037Z,4.03
2023-02-21T06:02:36.788Z,2.47
2023-02-21T06:03:38.671Z,3.90
2023-02-21T06:04:40.446Z,3.10
2023-02-21T06:05:42.266Z,2.70
2023-02-21T06:06:44.013Z,2.80
2023-02-21T06:07:46.752Z,4.03
2023-02-21T06:08:49.760Z,3.30
2023-02-21T06:09:51.896Z,3.70
2023-02-21T06:10:53.642Z,7.67
2023-02-21T06:11:56.861Z,3.60
2023-02-21T06:12:58.527Z,3.70
2023-02-21T06:14:04.958Z,4.07
2023-02-21T06:15:07.418Z,5.30
2023-02-21T06:16:09.203Z,3.83
2023-02-21T06:17:10.918Z,4.63
2023-02-21T06:18:14.720Z,3.90
2023-02-21T06:19:17.761Z,5.33
2023-02-21T06:20:19.567Z,9.07
2023-02-21T06:21:21.601Z,5.40
2023-02-21T06:22:23.419Z,10.80
2023-02-21T06:23:25.719Z,4.87
2023-02-21T06:24:27.488Z,5.43
2023-02-21T06:25:29.196Z,6.63
2023-02-21T06:26:31.045Z,8.50
2023-02-21T06:27:32.796Z,5.07
2023-02-21T06:28:34.723Z,5.97
2023-02-21T06:29:36.445Z,8.07
2023-02-21T06:30:38.235Z,8.30
2023-02-21T06:31:40.148Z,7.37
2023-02-21T06:32:43.334Z,7.63
2023-02-21T06:33:45.088Z,5.27
2023-02-21T06:34:46.858Z,15.27
2023-02-21T06:35:48.606Z,7.70
2023-02-21T06:36:54.619Z,5.63
2023-02-21T06:37:56.386Z,6.80
2023-02-21T06:38:58.349Z,6.00
2023-02-21T06:40:00.412Z,9.67
2023-02-21T06:41:06.973Z,16.07
2023-02-21T06:42:16.103Z,15.50
2023-02-21T06:43:17.897Z,13.77
2023-02-21T06:44:20.123Z,9.50
2023-02-21T06:45:21.827Z,8.33
2023-02-21T06:46:27.550Z,7.07
2023-02-21T06:47:29.483Z,7.77
2023-02-21T06:48:31.706Z,9.53
2023-02-21T06:49:33.474Z,6.77
2023-02-21T06:50:35.247Z,8.53
2023-02-21T06:51:41.436Z,9.13
2023-02-21T06:52:43.136Z,7.00
2023-02-21T06:53:48.745Z,8.17
2023-02-21T06:54:51.478Z,15.23
2023-02-21T06:55:53.679Z,6.90
2023-02-21T06:56:55.823Z,9.03
2023-02-21T06:57:57.527Z,8.77
2023-02-21T06:58:59.573Z,10.13
2023-02-21T07:00:01.336Z,4.50
2023-02-21T07:01:03.425Z,4.37
2023-02-21T07:02:05.590Z,5.93
2023-02-21T07:03:07.322Z,5.93
2023-02-21T07:04:09.347Z,10.00
2023-02-21T07:05:11.540Z,9.23
2023-02-21T07:06:13.544Z,7.37
2023-02-21T07:07:15.640Z,8.37
2023-02-21T07:08:17.312Z,6.43
2023-02-21T07:09:19.281Z,10.20
2023-02-21T07:10:21.128Z,5.67
2023-02-21T07:11:22.779Z,4.83
2023-02-21T07:12:24.472Z,7.00
2023-02-21T07:13:26.184Z,9.90
2023-02-21T07:14:27.869Z,5.77
2023-02-21T07:15:30.013Z,5.73
2023-02-21T07:16:31.778Z,5.03
2023-02-21T07:17:33.596Z,6.27
2023-02-21T07:18:35.278Z,9.43
2023-02-21T07:19:37.031Z,5.57
2023-02-21T07:20:41.347Z,11.73
2023-02-21T07:21:44.039Z,6.33
2023-02-21T07:22:45.734Z,6.03
2023-02-21T07:23:48.252Z,8.13
2023-02-21T07:24:49.981Z,11.40
2023-02-21T07:25:52.024Z,8.47
2023-02-21T07:26:53.820Z,7.13
2023-02-21T07:27:55.833Z,8.77
2023-02-21T07:28:57.597Z,8.97
2023-02-21T07:29:59.341Z,8.17
2023-02-21T07:31:01.310Z,6.30
2023-02-21T07:32:03.173Z,7.23
2023-02-21T07:33:04.933Z,14.53
2023-02-21T07:34:06.702Z,36.70
2023-02-21T07:35:09.179Z,32.27
2023-02-21T07:36:10.957Z,21.13
2023-02-21T07:37:12.815Z,9.30
2023-02-21T07:38:29.006Z,5.97
2023-02-21T07:39:30.703Z,7.83
2023-02-21T07:40:32.460Z,7.43
2023-02-21T07:41:34.503Z,9.57
2023-02-21T07:42:36.332Z,7.40
2023-02-21T07:43:39.326Z,11.60
2023-02-21T07:44:41.033Z,7.53
2023-02-21T07:45:42.754Z,7.67
2023-02-21T07:46:46.509Z,9.43
2023-02-21T07:47:50.978Z,7.53
2023-02-21T07:48:52.716Z,6.07
2023-02-21T07:49:54.689Z,9.83
2023-02-21T07:50:56.391Z,8.97
2023-02-21T07:51:58.208Z,8.10
2023-02-21T07:53:00.532Z,14.37
2023-02-21T07:54:02.220Z,6.50
2023-02-21T07:55:04.102Z,6.33
2023-02-21T07:56:05.963Z,6.50
2023-02-21T07:57:07.783Z,9.43
2023-02-21T07:58:10.462Z,6.93
2023-02-21T07:59:12.149Z,9.97
2023-02-21T08:00:14.460Z,9.47
2023-02-21T08:01:16.507Z,11.43
2023-02-21T08:02:18.443Z,10.43
2023-02-21T08:03:20.231Z,11.70
2023-02-21T08:04:23.508Z,9.67
2023-02-21T08:05:25.486Z,7.37
2023-02-21T08:06:27.247Z,10.87
2023-02-21T08:07:30.212Z,11.87
2023-02-21T08:08:31.960Z,9.73
2023-02-21T08:09:34.043Z,14.67
2023-02-21T08:10:36.210Z,10.83
2023-02-21T08:11:39.836Z,10.03
2023-02-21T08:12:41.595Z,11.30
2023-02-21T08:13:43.352Z,12.57
2023-02-21T08:14:45.029Z,15.87
2023-02-21T08:15:46.782Z,14.30
2023-02-21T08:16:48.483Z,14.87
2023-02-21T08:17:50.885Z,8.57
2023-02-21T08:18:53.157Z,11.93
2023-02-21T08:19:54.834Z,11.37
2023-02-21T08:20:57.384Z,9.70
2023-02-21T08:21:59.106Z,13.43
2023-02-21T08:23:00.845Z,12.93
2023-02-21T08:24:03.247Z,12.23
2023-02-21T08:25:05.253Z,12.30
2023-02-21T08:26:06.989Z,8.07
2023-02-21T08:27:08.718Z,9.40
2023-02-21T08:28:10.683Z,10.23
2023-02-21T08:29:13.938Z,11.87
2023-02-21T08:30:17.371Z,8.83
2023-02-21T08:31:19.329Z,10.40
2023-02-21T08:32:21.385Z,12.07
2023-02-21T08:33:23.287Z,10.23
2023-02-21T08:34:25.154Z,11.77
2023-02-21T08:35:26.873Z,8.27
2023-02-21T08:36:33.178Z,8.63
2023-02-21T08:37:36.356Z,14.53
2023-02-21T08:38:39.599Z,14.47
2023-02-21T08:39:44.270Z,9.93
2023-02-21T08:40:46.094Z,8.17
2023-02-21T08:41:52.412Z,10.07
2023-02-21T08:42:55.027Z,11.90
2023-02-21T08:43:56.859Z,8.30
2023-02-21T08:44:58.667Z,9.37
2023-02-21T08:46:00.485Z,9.90
2023-02-21T08:47:02.220Z,11.20
2023-02-21T08:48:04.562Z,9.70
2023-02-21T08:49:06.781Z,10.63
2023-02-21T08:50:08.887Z,10.30
2023-02-21T08:51:10.616Z,10.07
2023-02-21T08:52:12.350Z,9.13
2023-02-21T08:53:15.475Z,9.43
2023-02-21T08:54:17.338Z,9.50
2023-02-21T08:55:20.069Z,10.80
2023-02-21T08:56:23.111Z,8.27
2023-02-21T08:57:24.952Z,8.40
2023-02-21T08:58:26.718Z,9.53
2023-02-21T08:59:30.816Z,8.07
2023-02-21T09:00:32.846Z,8.20
2023-02-21T09:01:35.868Z,11.67
2023-02-21T09:02:41.574Z,11.67
2023-02-21T09:03:43.565Z,10.13
2023-02-21T09:04:47.315Z,8.17
2023-02-21T09:05:48.993Z,10.50
2023-02-21T09:06:51.666Z,7.90
2023-02-21T09:07:55.475Z,8.40
2023-02-21T09:08:57.340Z,7.63
2023-02-21T09:10:01.079Z,9.10
2023-02-21T09:11:03.649Z,8.03
2023-02-21T09:12:08.454Z,8.53
2023-02-21T09:13:10.140Z,9.10
2023-02-21T09:14:11.942Z,8.47
2023-02-21T09:15:17.067Z,10.27
2023-02-21T09:16:18.777Z,11.93
2023-02-21T09:17:20.507Z,8.50
2023-02-21T09:18:23.296Z,8.00
2023-02-21T09:19:25.018Z,8.67
2023-02-21T09:20:27.056Z,8.43
2023-02-21T09:21:28.910Z,12.17
2023-02-21T09:22:31.585Z,7.00
2023-02-21T09:23:33.400Z,6.93
2023-02-21T09:24:35.464Z,11.37
2023-02-21T09:25:37.447Z,9.67
2023-02-21T09:26:39.314Z,7.47
2023-02-21T09:27:41.601Z,9.23
2023-02-21T09:28:43.830Z,8.93
2023-02-21T09:29:47.231Z,10.20
2023-02-21T09:30:50.469Z,7.50
2023-02-21T09:31:52.647Z,11.20
2023-02-21T09:32:55.073Z,10.77
2023-02-21T09:33:57.059Z,8.80
2023-02-21T09:34:59.426Z,12.20
2023-02-21T09:36:01.188Z,8.60
2023-02-21T09:37:06.343Z,9.00
2023-02-21T09:38:08.737Z,8.67
2023-02-21T09:39:11.148Z,6.70
2023-02-21T09:40:34.006Z,7.37
2023-02-21T09:41:36.892Z,8.13
2023-02-21T09:42:38.617Z,7.80
2023-02-21T09:43:45.905Z,8.60
2023-02-21T09:44:48.424Z,7.63
2023-02-21T09:45:54.168Z,6.60
2023-02-21T09:47:02.612Z,9.03
2023-02-21T09:48:17.311Z,10.50
2023-02-21T09:49:37.160Z,9.53
2023-02-21T09:50:47.784Z,8.90
2023-02-21T09:51:50.499Z,9.57
2023-02-21T09:52:52.220Z,10.83
2023-02-21T09:53:56.493Z,6.83
2023-02-21T09:55:02.329Z,11.90
2023-02-21T09:56:14.035Z,14.43
2023-02-21T09:57:17.942Z,9.13
2023-02-21T09:58:21.489Z,10.77
2023-02-21T09:59:23.292Z,8.73
2023-02-21T10:00:35.832Z,9.30
2023-02-21T10:02:18.702Z,8.40
2023-02-21T10:03:23.511Z,8.87
2023-02-21T10:04:39.336Z,7.50
2023-02-21T10:05:54.179Z,8.47
2023-02-21T10:07:04.051Z,5.80
2023-02-21T10:08:26.969Z,7.97
2023-02-21T10:09:54.634Z,10.73
2023-02-21T10:10:58.529Z,9.47
2023-02-21T10:12:27.545Z,8.07
2023-02-21T10:14:05.170Z,8.77
2023-02-21T10:15:41.051Z,8.03
2023-02-21T10:17:12.543Z,8.13
2023-02-21T10:18:20.971Z,6.80
2023-02-21T10:19:39.082Z,9.20
2023-02-21T10:20:57.702Z,6.77
2023-02-21T10:22:03.346Z,9.10
2023-02-21T10:23:24.849Z,9.50
2023-02-21T10:24:28.514Z,8.67
2023-02-21T10:25:35.009Z,10.37
2023-02-21T10:26:42.092Z,7.80
2023-02-21T10:27:44.050Z,8.47
2023-02-21T10:28:45.861Z,14.07
2023-02-21T10:30:01.858Z,7.20
2023-02-21T10:31:11.085Z,7.53
2023-02-21T10:32:13.990Z,14.47
2023-02-21T10:33:16.788Z,29.70
2023-02-21T10:34:24.772Z,14.47
2023-02-21T10:35:26.623Z,10.57
2023-02-21T10:36:28.975Z,7.97
2023-02-21T10:37:47.423Z,9.30
2023-02-21T10:38:57.128Z,7.73
2023-02-21T10:40:07.627Z,7.90
2023-02-21T10:41:12.630Z,17.67
2023-02-21T10:42:22.817Z,10.23
2023-02-21T10:43:48.495Z,12.03
2023-02-21T10:44:50.694Z,13.07
2023-02-21T10:46:02.993Z,10.27
2023-02-21T10:47:35.235Z,9.07
2023-02-21T10:48:38.596Z,6.97
2023-02-21T10:50:04.861Z,9.23
2023-02-21T10:51:08.264Z,8.80
2023-02-21T10:52:17.485Z,10.10
2023-02-21T10:53:43.351Z,8.18
2023-02-21T10:55:00.018Z,8.30
2023-02-21T10:56:26.046Z,9.85
2023-02-21T10:57:30.900Z,8.43
2023-02-21T10:58:32.751Z,5.60
2023-02-21T10:59:38.778Z,8.03
2023-02-21T11:00:48.357Z,6.82
2023-02-21T11:01:52.040Z,5.20
2023-02-21T11:03:02.277Z,6.55
2023-02-21T11:04:29.201Z,8.00
2023-02-21T11:05:31.981Z,9.15
2023-02-21T11:06:39.876Z,7.70
2023-02-21T11:07:55.467Z,7.28
2023-02-21T11:08:57.993Z,7.97
2023-02-21T11:09:59.758Z,5.55
2023-02-21T11:11:02.676Z,4.57
2023-02-21T11:12:16.908Z,10.50
2023-02-21T11:13:22.351Z,7.53
2023-02-21T11:14:25.988Z,5.88
2023-02-21T11:15:28.482Z,8.73
2023-02-21T11:16:32.552Z,6.00
2023-02-21T11:17:34.415Z,6.68
2023-02-21T11:18:36.253Z,5.93
2023-02-21T11:19:45.557Z,4.47
2023-02-21T11:20:47.588Z,9.55
2023-02-21T11:21:55.979Z,9.10
2023-02-21T11:22:57.974Z,13.68
2023-02-21T11:24:03.145Z,13.52
2023-02-21T11:25:15.857Z,8.18
2023-02-21T11:26:17.731Z,4.32
2023-02-21T11:27:20.187Z,6.55
2023-02-21T11:28:23.569Z,8.95
2023-02-21T11:29:27.130Z,15.00
2023-02-21T11:30:31.908Z,6.47
2023-02-21T11:31:35.229Z,4.95
2023-02-21T11:32:40.646Z,4.18
2023-02-21T11:33:57.705Z,5.97
2023-02-21T11:35:07.169Z,4.05
2023-02-21T11:36:10.903Z,4.28
2023-02-21T11:37:12.695Z,6.72
2023-02-21T11:38:36.075Z,3.92
2023-02-21T11:39:38.933Z,6.70
2023-02-21T11:40:47.391Z,5.50
2023-02-21T11:41:53.097Z,7.22
2023-02-21T11:43:10.462Z,4.10
2023-02-21T11:44:43.165Z,4.00
2023-02-21T11:46:10.696Z,3.00
2023-02-21T11:47:26.632Z,4.40
2023-02-21T11:48:38.255Z,4.43
2023-02-21T11:50:08.464Z,3.55
2023-02-21T11:51:36.089Z,4.95
2023-02-21T11:52:59.345Z,3.92
2023-02-21T11:54:01.093Z,3.05
2023-02-21T11:55:03.635Z,1.77
2023-02-21T11:56:15.687Z,4.68
2023-02-21T11:57:35.571Z,5.40
2023-02-21T11:58:43.288Z,2.28
2023-02-21T12:00:11.393Z,1.90
2023-02-21T12:01:20.604Z,2.45
2023-02-21T12:02:50.389Z,3.00
2023-02-21T12:04:14.895Z,5.88
2023-02-21T12:05:31.869Z,5.47
2023-02-21T12:07:17.642Z,3.80
2023-02-21T12:08:22.944Z,4.70
2023-02-21T12:09:44.504Z,4.53
2023-02-21T12:10:51.954Z,4.78
2023-02-21T12:12:11.608Z,6.00
2023-02-21T12:13:38.251Z,6.18
2023-02-21T12:15:05.694Z,3.25
2023-02-21T12:16:07.395Z,1.67
2023-02-21T12:17:38.865Z,2.10
2023-02-21T12:19:18.916Z,1.58
2023-02-21T12:20:25.700Z,2.67
2023-02-21T12:21:45.612Z,11.45
2023-02-21T12:23:18.974Z,3.08
2023-02-21T12:24:44.419Z,3.90
2023-02-21T12:26:16.349Z,2.40
2023-02-21T12:27:55.283Z,2.17
2023-02-21T12:29:05.633Z,2.67
2023-02-21T12:30:27.077Z,5.68
2023-02-21T12:31:35.260Z,2.28
2023-02-21T12:32:51.562Z,4.40
2023-02-21T12:34:41.143Z,4.45
2023-02-21T12:36:02.472Z,2.10
2023-02-21T12:37:16.222Z,1.40
2023-02-21T12:38:28.736Z,1.73
2023-02-21T12:39:53.613Z,3.80
2023-02-21T12:41:18.395Z,1.88
2023-02-21T12:42:40.018Z,2.95
2023-02-21T12:44:06.441Z,4.22
2023-02-21T12:45:32.686Z,2.13
2023-02-21T12:46:56.341Z,1.60
2023-02-21T12:48:25.316Z,3.58
2023-02-21T12:49:41.384Z,3.60
2023-02-21T12:50:48.688Z,4.38
2023-02-21T12:52:00.411Z,4.63
2023-02-21T12:53:16.045Z,3.67
2023-02-21T12:54:38.364Z,2.50
2023-02-21T12:55:46.216Z,1.65
2023-02-21T12:56:53.968Z,2.20
2023-02-21T12:58:17.582Z,6.03
2023-02-21T12:59:27.419Z,4.75
2023-02-21T13:01:10.770Z,3.47
2023-02-21T13:02:43.014Z,4.20
2023-02-21T13:04:06.264Z,2.95
2023-02-21T13:05:14.232Z,2.28
2023-02-21T13:06:39.411Z,3.30
2023-02-21T13:07:52.355Z,3.05
2023-02-21T13:09:35.677Z,2.45
2023-02-21T13:11:03.381Z,2.58
2023-02-21T13:12:16.203Z,3.13
2023-02-21T13:13:32.455Z,2.60
2023-02-21T13:14:40.848Z,3.58
2023-02-21T13:15:45.900Z,3.53
2023-02-21T13:16:48.672Z,1.92
2023-02-21T13:18:29.007Z,2.75
2023-02-21T13:20:01.142Z,4.25
2023-02-21T13:21:11.084Z,3.85
2023-02-21T13:22:55.458Z,2.95
2023-02-21T13:24:18.111Z,3.10
2023-02-21T13:26:04.930Z,2.90
2023-02-21T13:27:33.642Z,3.78
2023-02-21T13:28:36.727Z,1.58
2023-02-21T13:29:41.033Z,5.15
2023-02-21T13:30:48.240Z,2.55
2023-02-21T13:32:09.838Z,1.55
2023-02-21T13:33:28.435Z,3.80
2023-02-21T13:34:35.873Z,1.55
2023-02-21T13:35:40.039Z,2.85
2023-02-21T13:36:46.508Z,2.55
2023-02-21T13:37:51.849Z,4.68
2023-02-21T13:39:12.224Z,2.55
2023-02-21T13:40:42.511Z,2.45
2023-02-21T13:41:57.841Z,4.45
2023-02-21T13:43:12.628Z,1.85
2023-02-21T13:44:20.043Z,1.50
2023-02-21T13:45:26.477Z,1.98
2023-02-21T13:46:31.330Z,2.15
2023-02-21T13:47:57.784Z,2.95
2023-02-21T13:49:37.183Z,2.25
2023-02-21T13:50:39.234Z,4.72
2023-02-21T13:51:53.081Z,1.73
2023-02-21T13:53:21.357Z,4.05
2023-02-21T13:54:25.655Z,2.20
2023-02-21T13:55:28.219Z,3.40
2023-02-21T13:56:46.406Z,2.95
2023-02-21T13:57:57.554Z,3.20
2023-02-21T13:59:26.096Z,3.08
2023-02-21T14:00:27.760Z,2.13
2023-02-21T14:01:30.601Z,2.33
2023-02-21T14:02:34.792Z,2.40
2023-02-21T14:03:36.495Z,1.67
2023-02-21T14:04:53.244Z,3.03
2023-02-21T14:05:58.003Z,2.67
2023-02-21T14:06:59.913Z,2.95
2023-02-21T14:08:07.596Z,3.67
2023-02-21T14:09:15.344Z,2.75
2023-02-21T14:10:22.426Z,2.80
2023-02-21T14:11:29.511Z,1.63
2023-02-21T14:12:31.933Z,2.30
2023-02-21T14:13:41.081Z,2.28
2023-02-21T14:14:43.878Z,2.67
2023-02-21T14:15:49.431Z,3.67
2023-02-21T14:17:07.701Z,2.40
2023-02-21T14:18:25.164Z,4.15
2023-02-21T14:19:30.885Z,2.67
2023-02-21T14:20:36.397Z,3.97
2023-02-21T14:21:41.170Z,4.15
2023-02-21T14:22:43.967Z,3.60
2023-02-21T14:24:02.588Z,4.53
2023-02-21T14:25:17.183Z,4.05
2023-02-21T14:26:53.155Z,8.15
2023-02-21T14:27:56.333Z,4.15
2023-02-21T14:28:57.992Z,2.20
2023-02-21T14:30:02.491Z,2.42
2023-02-21T14:31:04.286Z,1.30
2023-02-21T14:32:09.228Z,4.07
2023-02-21T14:33:26.077Z,2.08
2023-02-21T14:34:54.505Z,3.55
2023-02-21T14:36:10.561Z,1.90
2023-02-21T14:37:30.465Z,2.47
2023-02-21T14:38:39.125Z,4.90
2023-02-21T14:39:44.857Z,3.95
2023-02-21T14:41:09.258Z,5.18
2023-02-21T14:42:22.589Z,3.75
2023-02-21T14:43:38.049Z,5.25
2023-02-21T14:44:55.850Z,3.58
2023-02-21T14:46:14.504Z,1.40
2023-02-21T14:47:31.273Z,5.40
2023-02-21T14:48:51.615Z,3.38
2023-02-21T14:50:03.897Z,3.92
2023-02-21T14:51:50.820Z,3.22
2023-02-21T14:52:52.502Z,4.32
2023-02-21T14:54:28.357Z,3.72
2023-02-21T14:56:07.808Z,8.77
2023-02-21T14:57:40.529Z,3.92
2023-02-21T14:59:03.801Z,3.38
2023-02-21T15:00:11.804Z,4.45
2023-02-21T15:01:19.700Z,5.00
2023-02-21T15:02:42.160Z,3.25
2023-02-21T15:04:09.428Z,7.10
2023-02-21T15:05:14.135Z,7.10
2023-02-21T15:06:21.023Z,4.95
2023-02-21T15:07:32.294Z,5.90
2023-02-21T15:08:49.013Z,7.03
2023-02-21T15:10:12.751Z,3.17
2023-02-21T15:11:37.663Z,4.25
2023-02-21T15:12:46.875Z,9.80
2023-02-21T15:13:48.964Z,5.93
2023-02-21T15:14:52.788Z,4.63
2023-02-21T15:16:09.960Z,4.97
2023-02-21T15:17:16.604Z,4.28
2023-02-21T15:18:26.369Z,5.85
2023-02-21T15:19:28.967Z,6.53
2023-02-21T15:20:33.896Z,7.10
2023-02-21T15:21:35.643Z,4.85
2023-02-21T15:22:37.511Z,4.68
2023-02-21T15:23:44.218Z,9.73
2023-02-21T15:25:07.545Z,3.88
2023-02-21T15:26:27.340Z,6.70
2023-02-21T15:27:29.162Z,8.15